Time;durP1;ratioP1;P1;durP2;ratioP2;P2;SDS_P1;SDS_P2;PMS_P1;PMS_P2;Temp;Humidity;BMP_temperature;BMP_pressure;BME280_temperature;BME280_humidity;BME280_pressure;Samples;Min_cycle;Max_cycle;Signal;HPM_P1;HPM_P2
2021/08/03 00:02:08;;;;;;;1999.90;999.90;;;16.10;99.90;;;;;;4883743;29;20544;-78
2021/08/03 00:04:41;;;;;;;1999.90;999.90;;;16.10;99.90;;;;;;4897639;29;20407;-78
2021/08/03 00:07:12;;;;;;;1999.90;999.90;;;16.10;99.90;;;;;;4883668;29;20833;-78
2021/08/03 00:09:41;;;;;;;1999.90;999.90;;;16.00;99.90;;;;;;4883890;29;20422;-78
2021/08/03 00:12:10;;;;;;;1999.90;999.90;;;16.00;99.90;;;;;;4882446;29;20434;-78
2021/08/03 00:14:43;;;;;;;1999.90;999.90;;;16.00;99.90;;;;;;4883176;29;20415;-78
2021/08/03 00:17:12;;;;;;;1999.90;999.90;;;16.00;99.90;;;;;;4898747;29;20468;-78
2021/08/03 00:19:38;;;;;;;1999.90;999.90;;;16.00;99.90;;;;;;4882279;29;20496;-78
2021/08/03 00:22:05;;;;;;;1999.90;999.90;;;16.10;99.90;;;;;;4883401;29;20425;-78
2021/08/03 00:24:32;;;;;;;1999.90;999.90;;;16.00;99.90;;;;;;4883254;29;20823;-78
2021/08/03 00:26:58;;;;;;;1999.90;999.90;;;16.00;99.90;;;;;;4882986;29;20488;-78
2021/08/03 00:29:25;;;;;;;1999.90;999.90;;;16.00;99.90;;;;;;4883360;29;20423;-78
2021/08/03 00:31:51;;;;;;;1999.90;999.90;;;16.00;99.90;;;;;;4883144;29;20188;-78
2021/08/03 00:34:17;;;;;;;1999.90;999.90;;;16.00;99.90;;;;;;4881746;29;20864;-78
2021/08/03 00:36:43;;;;;;;1999.90;999.90;;;16.10;99.90;;;;;;4882811;29;20441;-78
2021/08/03 00:39:09;;;;;;;1999.90;999.90;;;16.10;99.90;;;;;;4882942;29;20169;-78
2021/08/03 00:41:44;;;;;;;1999.90;999.90;;;16.10;99.90;;;;;;4882777;29;20285;-78
2021/08/03 00:44:10;;;;;;;1999.90;999.90;;;16.10;99.90;;;;;;4883452;29;20405;-78
2021/08/03 00:46:36;;;;;;;1999.90;999.90;;;16.10;99.90;;;;;;4897090;29;20855;-78
2021/08/03 00:49:02;;;;;;;1999.90;999.90;;;16.10;99.90;;;;;;4883035;29;20178;-78
2021/08/03 00:51:28;;;;;;;1999.90;999.90;;;16.10;99.90;;;;;;4883056;29;20440;-78
2021/08/03 00:53:54;;;;;;;1999.90;999.90;;;16.10;99.90;;;;;;4883051;29;20449;-78
2021/08/03 00:56:19;;;;;;;1999.90;999.90;;;16.10;99.90;;;;;;4882312;29;20692;-78
2021/08/03 00:58:45;;;;;;;1999.90;999.90;;;16.00;99.90;;;;;;4882847;29;20185;-78
2021/08/03 01:01:11;;;;;;;1999.90;999.90;;;16.10;99.90;;;;;;4882666;29;20201;-78
2021/08/03 01:03:37;;;;;;;1999.90;999.90;;;16.10;99.90;;;;;;4882582;29;20179;-78
2021/08/03 01:06:12;;;;;;;1999.90;999.90;;;16.10;99.90;;;;;;4882462;29;20193;-78
2021/08/03 01:09:01;;;;;;;1999.90;999.90;;;16.10;99.90;;;;;;4882665;29;20883;-78
2021/08/03 01:11:44;;;;;;;1999.90;999.90;;;16.00;99.90;;;;;;4882519;29;20837;-78
2021/08/03 01:14:36;;;;;;;1999.90;999.90;;;16.00;99.90;;;;;;4896704;29;20843;-78
2021/08/03 01:17:24;;;;;;;1999.90;999.90;;;16.00;99.90;;;;;;4882392;29;20462;-78
2021/08/03 01:20:16;;;;;;;1999.90;999.90;;;16.10;99.90;;;;;;4882100;29;20493;-78
2021/08/03 01:22:53;;;;;;;1999.90;999.90;;;16.10;99.90;;;;;;4882506;29;20435;-78
2021/08/03 01:25:46;;;;;;;1999.90;999.90;;;16.00;99.90;;;;;;4881736;29;20415;-78
2021/08/03 01:28:24;;;;;;;1999.90;999.90;;;16.00;99.90;;;;;;4882443;29;20816;-78
2021/08/03 01:31:27;;;;;;;1999.90;999.90;;;16.00;99.90;;;;;;4880922;29;20814;-78
2021/08/03 01:34:15;;;;;;;1999.90;999.90;;;16.00;99.90;;;;;;4881918;29;20452;-78
2021/08/03 01:36:46;;;;;;;1999.90;999.90;;;16.00;99.90;;;;;;4881977;29;20432;-78
2021/08/03 01:39:16;;;;;;;1999.90;999.90;;;16.00;99.90;;;;;;4881649;29;20409;-78
2021/08/03 01:41:48;;;;;;;1999.90;999.90;;;16.00;99.90;;;;;;4882086;29;20754;-78
2021/08/03 01:44:15;;;;;;;1999.90;999.90;;;16.00;99.90;;;;;;4881913;29;20384;-78
2021/08/03 01:46:42;;;;;;;1999.90;999.90;;;15.90;99.90;;;;;;4881596;29;20945;-78
2021/08/03 01:49:11;;;;;;;1999.90;999.90;;;15.90;99.90;;;;;;4895852;29;20407;-78
2021/08/03 01:51:37;;;;;;;1999.90;999.90;;;15.90;99.90;;;;;;4881205;29;20446;-78
2021/08/03 01:54:04;;;;;;;1999.90;999.90;;;15.90;99.90;;;;;;4880876;29;20410;-78
2021/08/03 01:56:30;;;;;;;1999.90;999.90;;;15.90;99.90;;;;;;4881453;29;20427;-78
2021/08/03 01:58:58;;;;;;;1999.90;999.90;;;15.90;99.90;;;;;;4881200;29;20411;-78
2021/08/03 02:01:24;;;;;;;1999.90;999.90;;;15.90;99.90;;;;;;4881798;29;20483;-78
2021/08/03 02:03:50;;;;;;;1999.90;999.90;;;15.90;99.90;;;;;;4881165;29;20418;-78
2021/08/03 02:06:17;;;;;;;1999.90;999.90;;;15.90;99.90;;;;;;4881441;29;20477;-78
2021/08/03 02:08:44;;;;;;;1999.90;999.90;;;15.90;99.90;;;;;;4881864;29;20422;-78
2021/08/03 02:11:10;;;;;;;1999.90;999.90;;;15.90;99.90;;;;;;4881316;29;20425;-78
2021/08/03 02:13:36;;;;;;;1999.90;999.90;;;15.90;99.90;;;;;;4881197;29;20418;-78
2021/08/03 02:16:02;;;;;;;1999.90;999.90;;;15.80;99.90;;;;;;4895449;29;20434;-78
2021/08/03 02:18:28;;;;;;;1999.90;999.90;;;15.80;99.90;;;;;;4880098;29;20509;-78
2021/08/03 02:20:53;;;;;;;1999.90;999.90;;;15.80;99.90;;;;;;4881004;29;20877;-78
2021/08/03 02:23:19;;;;;;;1999.90;999.90;;;15.80;99.90;;;;;;4881118;29;20173;-78
2021/08/03 02:25:45;;;;;;;1999.90;999.90;;;15.90;99.90;;;;;;4881018;29;20171;-78
2021/08/03 02:28:10;;;;;;;1999.90;999.90;;;15.80;99.90;;;;;;4881053;29;20181;-78
2021/08/03 02:30:38;;;;;;;1999.90;999.90;;;15.90;99.90;;;;;;4880754;29;20189;-78
2021/08/03 02:33:35;;;;;;;1999.90;999.90;;;15.90;99.90;;;;;;4881112;29;20227;-78
2021/08/03 02:36:08;;;;;;;1999.90;999.90;;;15.80;99.90;;;;;;4880344;29;20956;-78
2021/08/03 02:38:41;;;;;;;1999.90;999.90;;;15.90;99.90;;;;;;4881202;29;20414;-78
2021/08/03 02:41:08;;;;;;;1999.90;999.90;;;15.90;99.90;;;;;;4881341;29;20499;-78
2021/08/03 02:43:36;;;;;;;1999.90;999.90;;;15.80;99.90;;;;;;4880875;29;20430;-78
2021/08/03 02:46:04;;;;;;;1999.90;999.90;;;15.80;99.90;;;;;;4894845;29;20450;-78
2021/08/03 02:48:32;;;;;;;1999.90;999.90;;;15.70;99.90;;;;;;4880678;29;20467;-78
2021/08/03 02:50:59;;;;;;;1999.90;999.90;;;15.70;99.90;;;;;;4895319;29;20414;-78
2021/08/03 02:53:30;;;;;;;1999.90;999.90;;;15.60;99.90;;;;;;4880604;29;20892;-78
2021/08/03 02:56:02;;;;;;;1999.90;999.90;;;15.50;99.90;;;;;;4880744;29;20824;-78
2021/08/03 02:58:36;;;;;;;1999.90;999.90;;;15.60;99.90;;;;;;4880564;29;20447;-78
2021/08/03 03:01:04;;;;;;;1999.90;999.90;;;15.50;99.90;;;;;;4880673;29;20452;-78
2021/08/03 03:03:33;;;;;;;1999.90;999.90;;;15.50;99.90;;;;;;4881980;29;20505;-78
2021/08/03 03:06:04;;;;;;;1999.90;999.90;;;15.40;99.90;;;;;;4884162;29;20451;-78
2021/08/03 03:08:33;;;;;;;1999.90;999.90;;;15.40;99.90;;;;;;4884856;29;20416;-78
2021/08/03 03:11:02;;;;;;;1999.90;999.90;;;15.40;99.90;;;;;;4884442;29;20418;-78
2021/08/03 03:13:51;;;;;;;1999.90;999.90;;;15.40;99.90;;;;;;4884524;29;20405;-78
2021/08/03 03:16:19;;;;;;;1999.90;999.90;;;15.40;99.90;;;;;;4884797;29;20785;-78
2021/08/03 03:18:46;;;;;;;1999.90;999.90;;;15.50;99.90;;;;;;4884239;29;20409;-78
2021/08/03 03:21:17;;;;;;;1999.90;999.90;;;15.40;99.90;;;;;;4884373;29;20447;-78
2021/08/03 03:23:42;;;;;;;1999.90;999.90;;;15.40;99.90;;;;;;4884466;29;20456;-78
2021/08/03 03:26:09;;;;;;;1999.90;999.90;;;15.40;99.90;;;;;;4884763;29;20431;-78
2021/08/03 03:28:38;;;;;;;1999.90;999.90;;;15.40;99.90;;;;;;4883930;29;20173;-78
2021/08/03 03:31:06;;;;;;;1999.90;999.90;;;15.40;99.90;;;;;;4950950;23;20945;-82
2021/08/03 03:33:37;;;;;;;1999.90;999.90;;;15.50;99.90;;;;;;4886426;29;20430;-82
2021/08/03 03:36:05;;;;;;;1999.90;999.90;;;15.50;99.90;;;;;;4886276;29;20425;-82
2021/08/03 03:38:36;;;;;;;1999.90;999.90;;;15.50;99.90;;;;;;4885792;29;20416;-82
2021/08/03 03:41:04;;;;;;;1999.90;999.90;;;15.50;99.90;;;;;;4900659;29;20461;-80
2021/08/03 03:43:30;;;;;;;1999.90;999.90;;;15.50;99.90;;;;;;4886138;29;20496;-82
2021/08/03 03:46:03;;;;;;;1999.90;999.90;;;15.50;99.90;;;;;;4886863;29;20490;-82
2021/08/03 03:48:32;;;;;;;1999.90;999.90;;;15.50;99.90;;;;;;4885825;29;20402;-82
2021/08/03 03:51:00;;;;;;;1999.90;999.90;;;15.50;99.90;;;;;;4886141;29;20930;-82
2021/08/03 03:53:44;;;;;;;1999.90;999.90;;;15.40;99.90;;;;;;4885820;29;20413;-81
2021/08/03 03:56:18;;;;;;;1999.90;999.90;;;15.30;99.90;;;;;;4885782;29;20451;-82
2021/08/03 03:58:50;;;;;;;1999.90;999.90;;;15.30;99.90;;;;;;4885859;29;20938;-82
2021/08/03 04:01:25;;;;;;;1999.90;999.90;;;15.40;99.90;;;;;;4885724;29;20440;-82
2021/08/03 04:04:13;;;;;;;1999.90;999.90;;;15.40;99.90;;;;;;4885252;29;20401;-82
2021/08/03 04:06:39;;;;;;;1999.90;999.90;;;15.50;99.90;;;;;;4885154;29;20437;-82
2021/08/03 04:09:17;;;;;;;1999.90;999.90;;;15.50;99.90;;;;;;4885720;29;20415;-82
2021/08/03 04:11:47;;;;;;;1999.90;999.90;;;15.50;99.90;;;;;;4885122;29;20428;-82
2021/08/03 04:14:19;;;;;;;1999.90;999.90;;;15.40;99.90;;;;;;4899921;29;20824;-82
2021/08/03 04:16:45;;;;;;;1999.90;999.90;;;15.40;99.90;;;;;;4885603;29;20536;-82
2021/08/03 04:19:14;;;;;;;1999.90;999.90;;;15.30;99.90;;;;;;4885303;29;20412;-82
2021/08/03 04:21:48;;;;;;;1999.90;999.90;;;15.30;99.90;;;;;;4884029;29;20489;-82
2021/08/03 04:24:18;;;;;;;1999.90;999.90;;;15.30;99.90;;;;;;4885204;29;20519;-82
2021/08/03 04:26:44;;;;;;;1999.90;999.90;;;15.40;99.90;;;;;;4883749;29;20432;-82
2021/08/03 04:29:13;;;;;;;1999.90;999.90;;;15.40;99.90;;;;;;4884166;29;21016;-81
2021/08/03 04:31:42;;;;;;;1999.90;999.90;;;15.40;99.90;;;;;;4899725;29;20448;-82
2021/08/03 04:34:16;;;;;;;1999.90;999.90;;;15.30;99.90;;;;;;4883882;29;20421;-82
2021/08/03 04:36:49;;;;;;;1999.90;999.90;;;15.20;99.90;;;;;;4899211;29;20443;-81
2021/08/03 04:39:14;;;;;;;1999.90;999.90;;;15.20;99.90;;;;;;4885138;29;20415;-82
2021/08/03 04:41:41;;;;;;;1999.90;999.90;;;15.30;99.90;;;;;;4884956;29;20968;-82
2021/08/03 04:44:07;;;;;;;1999.90;999.90;;;15.40;99.90;;;;;;4899145;29;20172;-82
2021/08/03 04:46:35;;;;;;;1999.90;999.90;;;15.40;99.90;;;;;;4884915;29;20799;-82
2021/08/03 04:49:33;;;;;;;1999.90;999.90;;;15.50;99.90;;;;;;4884793;29;20436;-82
2021/08/03 04:52:04;;;;;;;1999.90;999.90;;;15.50;99.90;;;;;;4883506;29;20422;-82
2021/08/03 04:54:33;;;;;;;1999.90;999.90;;;15.40;99.90;;;;;;4883502;29;20500;-82
2021/08/03 04:57:05;;;;;;;1999.90;999.90;;;15.40;99.90;;;;;;4883452;29;20967;-82
2021/08/03 04:59:43;;;;;;;1999.90;999.90;;;15.40;99.90;;;;;;4884426;29;20928;-82
2021/08/03 05:02:16;;;;;;;1999.90;999.90;;;15.40;99.90;;;;;;4884668;29;20911;-82
2021/08/03 05:04:47;;;;;;;1999.90;999.90;;;15.40;99.90;;;;;;4884691;29;20469;-82
2021/08/03 05:07:15;;;;;;;1999.90;999.90;;;15.30;99.90;;;;;;4884516;29;20440;-82
2021/08/03 05:09:43;;;;;;;1999.90;999.90;;;15.20;99.90;;;;;;4885040;29;20926;-82
2021/08/03 05:12:12;;;;;;;1999.90;999.90;;;15.20;99.90;;;;;;4884061;29;20404;-82
2021/08/03 05:14:40;;;;;;;1999.90;999.90;;;15.30;99.90;;;;;;4884565;29;20889;-82
2021/08/03 05:17:09;;;;;;;1999.90;999.90;;;15.40;99.90;;;;;;4898426;29;20434;-82
2021/08/03 05:19:37;;;;;;;1999.90;999.90;;;15.50;99.90;;;;;;4885044;29;20439;-82
2021/08/03 05:22:11;;;;;;;1999.90;999.90;;;15.40;99.90;;;;;;4885147;29;20405;-82
2021/08/03 05:24:39;;;;;;;1999.90;999.90;;;15.40;99.90;;;;;;4885260;29;20770;-82
2021/08/03 05:27:05;;;;;;;1999.90;999.90;;;15.30;99.90;;;;;;4898970;29;20441;-82
2021/08/03 05:29:31;;;;;;;1999.90;999.90;;;15.40;99.90;;;;;;4898846;29;20413;-82
2021/08/03 05:31:57;;;;;;;1999.90;999.90;;;15.40;99.90;;;;;;4884136;29;20557;-80
2021/08/03 05:34:25;;;;;;;1999.90;999.90;;;15.50;99.90;;;;;;4883578;29;20174;-82
2021/08/03 05:36:51;;;;;;;1999.90;999.90;;;15.40;99.90;;;;;;4883611;29;20675;-82
2021/08/03 05:39:17;;;;;;;1999.90;999.90;;;15.30;99.90;;;;;;4884357;29;20420;-82
2021/08/03 05:41:42;;;;;;;1999.90;999.90;;;15.20;99.90;;;;;;4882786;29;20207;-81
2021/08/03 05:44:08;;;;;;;1999.90;999.90;;;15.30;99.90;;;;;;4883876;29;20261;-82
2021/08/03 05:46:34;;;;;;;1999.90;999.90;;;15.30;99.90;;;;;;4884316;29;20183;-81
2021/08/03 05:49:03;;;;;;;1999.90;999.90;;;15.40;99.90;;;;;;4898463;29;20172;-82
2021/08/03 05:51:35;;;;;;;1999.90;999.90;;;15.50;99.90;;;;;;4883883;29;20176;-82
2021/08/03 05:54:29;;;;;;;1999.90;999.90;;;15.50;99.90;;;;;;4883953;29;20390;-83
2021/08/03 05:57:36;;;;;;;1999.90;999.90;;;15.50;99.90;;;;;;4881079;29;20447;-83
2021/08/03 06:00:05;;;;;;;1999.90;999.90;;;15.50;99.90;;;;;;4885302;29;20456;-83
2021/08/03 06:02:34;;;;;;;1999.90;999.90;;;15.50;99.90;;;;;;4884840;29;20412;-83
2021/08/03 06:04:59;;;;;;;1999.90;999.90;;;15.50;99.90;;;;;;4883849;29;20413;-82
2021/08/03 06:07:51;;;;;;;1999.90;999.90;;;15.60;99.90;;;;;;4898020;29;20437;-82
2021/08/03 06:10:16;;;;;;;1999.90;999.90;;;15.60;99.90;;;;;;4883344;29;20522;-82
2021/08/03 06:13:00;;;;;;;1999.90;999.90;;;15.60;99.90;;;;;;4883979;29;20419;-82
2021/08/03 06:15:33;;;;;;;1999.90;999.90;;;15.60;99.90;;;;;;4882763;29;20185;-82
2021/08/03 06:18:29;;;;;;;1999.90;999.90;;;15.70;99.90;;;;;;4882683;29;20461;-82
2021/08/03 06:21:05;;;;;;;1999.90;999.90;;;15.70;99.90;;;;;;4883215;29;20468;-82
2021/08/03 06:23:44;;;;;;;1999.90;999.90;;;15.70;99.90;;;;;;4883088;29;20846;-82
2021/08/03 06:26:13;;;;;;;1999.90;999.90;;;15.70;99.90;;;;;;4883209;29;20800;-82
2021/08/03 06:28:42;;;;;;;1999.90;999.90;;;15.70;99.90;;;;;;4882159;29;20496;-83
2021/08/03 06:31:20;;;;;;;1999.90;999.90;;;15.70;99.90;;;;;;4882934;29;20444;-82
2021/08/03 06:33:49;;;;;;;1999.90;999.90;;;15.70;99.90;;;;;;4883399;29;20401;-83
2021/08/03 06:36:15;;;;;;;1999.90;999.90;;;15.80;99.90;;;;;;4897532;29;20445;-82
2021/08/03 06:39:17;;;;;;;1999.90;999.90;;;15.80;99.90;;;;;;4883950;29;20481;-83
2021/08/03 06:42:04;;;;;;;1999.90;999.90;;;15.80;99.90;;;;;;4883564;29;20829;-82
2021/08/03 06:45:13;;;;;;;1999.90;999.90;;;15.90;99.90;;;;;;4883995;29;20490;-82
2021/08/03 06:47:53;;;;;;;1999.90;999.90;;;15.90;99.90;;;;;;4882991;29;20435;-82
2021/08/03 06:50:59;;;;;;;1999.90;999.90;;;16.00;99.90;;;;;;4883086;29;20972;-82
2021/08/03 06:53:26;;;;;;;1999.90;999.90;;;16.10;99.90;;;;;;4882363;29;20404;-83
2021/08/03 06:55:53;;;;;;;1999.90;999.90;;;16.10;99.90;;;;;;4883455;29;20493;-82
2021/08/03 06:58:48;;;;;;;1999.90;999.90;;;16.00;99.90;;;;;;4884561;29;20909;-82
2021/08/03 07:01:18;;;;;;;1999.90;999.90;;;16.10;99.90;;;;;;4897942;29;20540;-83
2021/08/03 07:03:48;;;;;;;1999.90;999.90;;;16.10;99.90;;;;;;4883478;29;20411;-82
2021/08/03 07:06:19;;;;;;;1999.90;999.90;;;16.00;99.90;;;;;;4883148;29;20430;-83
2021/08/03 07:08:45;;;;;;;1999.90;999.90;;;16.00;99.90;;;;;;4883760;29;20391;-83
2021/08/03 07:11:12;;;;;;;1999.90;999.90;;;16.00;99.90;;;;;;4884050;29;20405;-83
2021/08/03 07:13:38;;;;;;;1999.90;999.90;;;16.00;99.90;;;;;;4883699;29;20450;-82
2021/08/03 07:16:04;;;;;;;1999.90;999.90;;;16.00;99.90;;;;;;4896859;29;20430;-82
2021/08/03 07:18:37;;;;;;;1999.90;999.90;;;16.00;99.90;;;;;;4897669;29;20549;-82
2021/08/03 07:21:04;;;;;;;1999.90;999.90;;;16.00;99.90;;;;;;4882923;29;20481;-82
2021/08/03 07:23:32;;;;;;;1999.90;999.90;;;16.10;99.90;;;;;;4883433;29;20410;-82
2021/08/03 07:26:00;;;;;;;1999.90;999.90;;;16.10;99.90;;;;;;4882474;29;20769;-82
2021/08/03 07:28:26;;;;;;;1999.90;999.90;;;16.20;99.90;;;;;;4883513;29;20438;-82
2021/08/03 07:30:52;;;;;;;1999.90;999.90;;;16.30;99.90;;;;;;4883540;29;20434;-83
2021/08/03 07:33:19;;;;;;;1999.90;999.90;;;16.40;99.90;;;;;;4881997;29;20173;-83
2021/08/03 07:35:51;;;;;;;1999.90;999.90;;;16.30;99.90;;;;;;4881819;29;20229;-83
2021/08/03 07:38:16;;;;;;;1999.90;999.90;;;16.40;99.90;;;;;;4883197;29;20418;-83
2021/08/03 07:40:42;;;;;;;1999.90;999.90;;;16.40;99.90;;;;;;4897095;29;20527;-82
2021/08/03 07:43:08;;;;;;;1999.90;999.90;;;16.50;99.90;;;;;;4883604;29;20537;-82
2021/08/03 07:45:40;;;;;;;1999.90;999.90;;;16.60;99.90;;;;;;4895781;29;20411;-81
2021/08/03 07:48:08;;;;;;;1999.90;999.90;;;16.50;99.90;;;;;;4883605;29;20163;-83
2021/08/03 07:50:35;;;;;;;1999.90;999.90;;;16.50;99.90;;;;;;4900427;29;20421;-82
2021/08/03 07:53:01;;;;;;;1999.90;999.90;;;16.60;99.90;;;;;;4886508;29;20940;-82
2021/08/03 07:55:26;;;;;;;1999.90;999.90;;;16.70;99.90;;;;;;4885157;29;20419;-82
2021/08/03 07:57:52;;;;;;;1999.90;999.90;;;16.90;99.90;;;;;;4885766;29;20607;-82
2021/08/03 08:00:18;;;;;;;1999.90;999.90;;;16.90;99.90;;;;;;4885926;29;20234;-82
2021/08/03 08:02:44;;;;;;;1999.90;999.90;;;16.90;99.90;;;;;;4886010;29;20167;-82
2021/08/03 08:05:09;;;;;;;1999.90;999.90;;;17.00;99.90;;;;;;4885985;29;20163;-83
2021/08/03 08:07:35;;;;;;;1999.90;999.90;;;16.90;99.90;;;;;;4899799;29;20191;-82
2021/08/03 08:10:01;;;;;;;1999.90;999.90;;;16.80;99.90;;;;;;4886077;29;20867;-83
2021/08/03 08:12:26;;;;;;;1999.90;999.90;;;16.70;99.90;;;;;;4885892;29;20591;-83
2021/08/03 08:14:52;;;;;;;1999.90;999.90;;;16.70;99.90;;;;;;4887459;29;20571;-83
2021/08/03 08:17:21;;;;;;;1999.90;999.90;;;16.60;99.90;;;;;;4885935;29;20204;-83
2021/08/03 08:19:49;;;;;;;1999.90;999.90;;;16.60;99.90;;;;;;4884718;29;20177;-82
2021/08/03 08:22:15;;;;;;;1999.90;999.90;;;16.70;99.90;;;;;;4884429;29;20498;-82
2021/08/03 08:24:44;;;;;;;1999.90;999.90;;;16.80;99.90;;;;;;4885542;29;20779;-82
2021/08/03 08:27:10;;;;;;;1999.90;999.90;;;16.90;99.90;;;;;;4885253;29;20824;-82
2021/08/03 08:29:39;;;;;;;1999.90;999.90;;;16.90;99.90;;;;;;4885562;29;20408;-83
2021/08/03 08:32:09;;;;;;;1999.90;999.90;;;16.90;99.90;;;;;;4885313;29;20183;-82
2021/08/03 08:34:38;;;;;;;1999.90;999.90;;;16.90;99.90;;;;;;4885835;29;20987;-82
2021/08/03 08:37:04;;;;;;;1999.90;999.90;;;16.90;99.90;;;;;;4902024;29;20435;-83
2021/08/03 08:39:31;;;;;;;1999.90;999.90;;;16.80;99.90;;;;;;4886023;29;20415;-82
2021/08/03 08:42:00;;;;;;;1999.90;999.90;;;16.80;99.90;;;;;;4900574;29;20420;-83
2021/08/03 08:44:26;;;;;;;1999.90;999.90;;;16.80;99.90;;;;;;4884449;29;20430;-82
2021/08/03 08:50:36;;;;;;;1999.90;999.90;;;16.70;99.90;;;;;;4449392;27;20248;-83
2021/08/03 08:53:56;;;;;;;1999.90;999.90;;;16.60;99.90;;;;;;4870563;29;20426;-83
2021/08/03 08:56:10;;;;;;;1999.90;999.90;;;16.60;99.90;;;;;;4862984;29;20474;-82
2021/08/03 08:58:45;;;;;;;1999.90;999.90;;;16.70;99.90;;;;;;4866487;29;20463;-83
2021/08/03 09:01:17;;;;;;;1999.90;999.90;;;16.60;99.90;;;;;;4865840;29;20447;-83
2021/08/03 09:03:52;;;;;;;1999.90;999.90;;;16.60;99.90;;;;;;4866357;29;20432;-82
2021/08/03 09:06:41;;;;;;;1999.90;999.90;;;16.50;99.90;;;;;;4866815;29;20443;-83
2021/08/03 09:13:06;;;;;;;1999.90;999.90;;;16.50;99.90;;;;;;4866379;29;20436;-83
2021/08/03 09:18:31;;;;;;;1999.90;999.90;;;16.60;99.90;;;;;;4895707;23;20570;-83
2021/08/03 09:20:58;;;;;;;1999.90;999.90;;;16.70;99.90;;;;;;4883868;29;20463;-82
2021/08/03 09:24:06;;;;;;;1999.90;999.90;;;16.60;99.90;;;;;;4898458;29;20987;-82
2021/08/03 09:26:49;;;;;;;1999.90;999.90;;;16.70;99.90;;;;;;4884169;29;20641;-82
2021/08/03 09:29:18;;;;;;;1999.90;999.90;;;16.80;99.90;;;;;;4883836;29;20404;-82
2021/08/03 09:32:07;;;;;;;1999.90;999.90;;;16.80;99.90;;;;;;4883533;29;20482;-82
2021/08/03 09:34:36;;;;;;;1999.90;999.90;;;16.80;99.90;;;;;;4882822;29;20597;-83
2021/08/03 09:37:02;;;;;;;1999.90;999.90;;;16.80;99.90;;;;;;4883413;29;20427;-83
2021/08/03 09:39:43;;;;;;;1999.90;999.90;;;16.70;99.90;;;;;;4883679;29;20459;-83
2021/08/03 09:42:22;;;;;;;1999.90;999.90;;;16.60;99.90;;;;;;4883355;29;20779;-82
2021/08/03 09:45:05;;;;;;;1999.90;999.90;;;16.60;99.90;;;;;;4883880;29;20392;-83
2021/08/03 09:47:44;;;;;;;1999.90;999.90;;;16.70;99.90;;;;;;4883896;29;20483;-82
2021/08/03 09:50:20;;;;;;;1999.90;999.90;;;16.70;99.90;;;;;;4883542;29;20387;-83
2021/08/03 09:53:20;;;;;;;1999.90;999.90;;;16.70;99.90;;;;;;4882982;29;20411;-83
2021/08/03 09:55:59;;;;;;;1999.90;999.90;;;16.70;99.90;;;;;;4882301;29;20462;-82
2021/08/03 09:58:34;;;;;;;1999.90;999.90;;;16.80;99.90;;;;;;4882388;29;20442;-82
2021/08/03 10:01:32;;;;;;;1999.90;999.90;;;17.00;99.90;;;;;;4883393;29;20450;-83
2021/08/03 10:11:40;;;;;;;1999.90;999.90;;;17.40;99.90;;;;;;4882665;29;20946;-83
2021/08/03 10:25:15;;;;;;;1999.90;999.90;;;17.10;99.90;;;;;;4809082;29;20411;-83
2021/08/03 10:35:00;;;;;;;1999.90;999.90;;;17.30;99.90;;;;;;4903013;29;20431;-83
2021/08/03 10:41:10;;;;;;;1999.90;999.90;;;17.20;99.90;;;;;;4883426;29;20527;-83
2021/08/03 10:44:26;;;;;;;1999.90;999.90;;;17.40;99.90;;;;;;4883901;29;20407;-83
2021/08/03 10:47:36;;;;;;;1999.90;999.90;;;17.50;99.90;;;;;;4883181;29;20819;-83
2021/08/03 10:50:39;;;;;;;1999.90;999.90;;;17.70;99.90;;;;;;4883764;29;20415;-83
2021/08/03 10:53:13;;;;;;;1999.90;999.90;;;17.70;99.90;;;;;;4884658;29;20456;-83
2021/08/03 10:56:05;;;;;;;1999.90;999.90;;;17.70;99.90;;;;;;4884224;29;20403;-82
2021/08/03 10:58:31;;;;;;;1999.90;999.90;;;17.70;99.90;;;;;;4884177;29;20417;-83
2021/08/03 11:01:04;;;;;;;1999.90;999.90;;;17.50;99.90;;;;;;4883733;29;20451;-82
2021/08/03 11:03:35;;;;;;;1999.90;999.90;;;17.60;99.90;;;;;;4883250;29;20447;-82
2021/08/03 11:06:09;;;;;;;1999.90;999.90;;;17.80;99.90;;;;;;4897529;29;20435;-82
2021/08/03 11:08:43;;;;;;;1999.90;999.90;;;17.90;99.90;;;;;;4897340;29;20463;-83
2021/08/03 11:11:18;;;;;;;1999.90;999.90;;;18.00;99.90;;;;;;4882652;29;20399;-83
2021/08/03 11:13:52;;;;;;;1999.90;999.90;;;18.10;99.90;;;;;;4882568;29;20394;-82
2021/08/03 11:16:24;;;;;;;1999.90;999.90;;;18.10;99.90;;;;;;4881624;29;20434;-82
2021/08/03 11:18:58;;;;;;;1999.90;999.90;;;18.10;99.90;;;;;;4882313;29;20422;-82
2021/08/03 11:21:27;;;;;;;1999.90;999.90;;;18.20;99.90;;;;;;4882145;29;20523;-83
2021/08/03 11:24:31;;;;;;;1999.90;999.90;;;18.50;99.90;;;;;;4897788;29;20415;-82
2021/08/03 11:26:58;;;;;;;1999.90;999.90;;;18.70;99.90;;;;;;4886176;29;20449;-83
2021/08/03 11:29:42;;;;;;;1999.90;999.90;;;18.80;99.90;;;;;;4886469;29;20399;-82
2021/08/03 11:32:18;;;;;;;1999.90;999.90;;;18.80;99.90;;;;;;4886144;29;20387;-82
2021/08/03 11:34:47;;;;;;;1999.90;999.90;;;18.60;99.90;;;;;;4886167;29;20391;-82
2021/08/03 11:37:20;;;;;;;1999.90;999.90;;;18.80;99.90;;;;;;4885551;29;20510;-82
2021/08/03 11:40:05;;;;;;;1999.90;999.90;;;18.70;99.90;;;;;;4885433;29;20408;-82
2021/08/03 11:42:41;;;;;;;1999.90;999.90;;;18.70;99.90;;;;;;4898365;29;20407;-83
2021/08/03 11:45:13;;;;;;;1999.90;999.90;;;18.60;99.90;;;;;;4886093;29;20471;-82
2021/08/03 11:47:51;;;;;;;1999.90;999.90;;;18.50;99.90;;;;;;4885767;29;20423;-82
2021/08/03 11:50:29;;;;;;;1999.90;999.90;;;18.60;99.90;;;;;;4899799;29;20419;-83
2021/08/03 11:53:09;;;;;;;1999.90;999.90;;;18.40;99.90;;;;;;4885340;29;20387;-83
2021/08/03 11:55:36;;;;;;;1999.90;999.90;;;18.70;99.90;;;;;;4884827;29;20407;-83
2021/08/03 11:58:04;;;;;;;1999.90;999.90;;;18.90;99.90;;;;;;4885583;29;20839;-83
2021/08/03 12:00:31;;;;;;;1999.90;999.90;;;19.10;99.90;;;;;;4886014;29;20455;-83
2021/08/03 12:02:59;;;;;;;1999.90;999.90;;;19.30;99.90;;;;;;4903518;29;20411;-84
2021/08/03 12:05:30;;;;;;;1999.90;999.90;;;19.60;99.90;;;;;;4887142;29;20407;-83
2021/08/03 12:08:12;;;;;;;1999.90;999.90;;;19.40;99.90;;;;;;4886575;29;20546;-83
2021/08/03 12:10:48;;;;;;;1999.90;999.90;;;19.20;99.90;;;;;;4885997;29;20403;-82
2021/08/03 12:13:37;;;;;;;1999.90;999.90;;;19.30;99.90;;;;;;4885164;29;20458;-82
2021/08/03 12:16:05;;;;;;;1999.90;999.90;;;19.70;99.90;;;;;;4899645;29;20439;-82
2021/08/03 12:18:41;;;;;;;1999.90;999.90;;;19.80;99.90;;;;;;4885032;29;20431;-83
2021/08/03 12:21:09;;;;;;;1999.90;999.90;;;19.80;99.90;;;;;;4885853;29;20495;-82
2021/08/03 12:23:39;;;;;;;1999.90;999.90;;;20.00;99.90;;;;;;4885235;29;20411;-82
2021/08/03 12:26:15;;;;;;;1999.90;999.90;;;20.20;99.90;;;;;;4885688;29;20439;-82
2021/08/03 12:28:45;;;;;;;1999.90;999.90;;;20.50;99.90;;;;;;4900080;29;20442;-82
2021/08/03 12:31:41;;;;;;;1999.90;999.90;;;20.70;99.90;;;;;;4900017;29;20427;-83
2021/08/03 12:34:13;;;;;;;1999.90;999.90;;;20.80;99.90;;;;;;4884222;29;20421;-82
2021/08/03 12:36:57;;;;;;;1999.90;999.90;;;21.00;99.90;;;;;;4899057;29;20526;-82
2021/08/03 12:39:39;;;;;;;1999.90;999.90;;;21.20;99.90;;;;;;4883520;29;20422;-82
2021/08/03 12:42:07;;;;;;;1999.90;999.90;;;21.30;99.90;;;;;;4885307;29;20400;-82
2021/08/03 12:44:40;;;;;;;1999.90;999.90;;;21.10;99.90;;;;;;4885125;29;20903;-82
2021/08/03 12:47:23;;;;;;;1999.90;999.90;;;21.10;99.90;;;;;;4885279;29;20513;-82
2021/08/03 12:50:05;;;;;;;1999.90;999.90;;;20.90;99.90;;;;;;4885399;29;20392;-82
2021/08/03 12:52:31;;;;;;;1999.90;999.90;;;20.40;99.90;;;;;;4885002;29;20435;-81
2021/08/03 12:55:09;;;;;;;1999.90;999.90;;;20.20;99.90;;;;;;4898415;29;20407;-81
2021/08/03 12:57:46;;;;;;;1999.90;999.90;;;20.20;99.90;;;;;;4883982;29;20192;-81
2021/08/03 13:00:43;;;;;;;1999.90;999.90;;;20.20;99.90;;;;;;4883986;29;20462;-81
2021/08/03 13:03:11;;;;;;;1999.90;999.90;;;19.70;99.90;;;;;;4882489;29;20426;-82
2021/08/03 13:05:37;;;;;;;1999.90;999.90;;;19.60;99.90;;;;;;4898470;29;20424;-81
2021/08/03 13:08:06;;;;;;;1999.90;999.90;;;19.70;99.90;;;;;;4884222;29;20413;-81